Time;durP1;ratioP1;P1;durP2;ratioP2;P2;SDS_P1;SDS_P2;PMS_P1;PMS_P2;Temp;Humidity;BMP_temperature;BMP_pressure;BME280_temperature;BME280_humidity;BME280_pressure;Samples;Min_cycle;Max_cycle;Signal;HPM_P1;HPM_P2
2022/05/06 00:01:45;;;;;;;42.72;24.23;;;12.90;99.90;;;;;;5053498;28;20033;-73
2022/05/06 00:04:12;;;;;;;45.53;24.90;;;12.90;99.90;;;;;;5053443;28;20028;-73
2022/05/06 00:06:38;;;;;;;46.50;25.17;;;12.30;99.90;;;;;;5053437;28;20119;-73
2022/05/06 00:09:04;;;;;;;49.20;26.55;;;11.90;99.90;;;;;;5053455;28;20126;-74
2022/05/06 00:11:31;;;;;;;54.72;26.15;;;11.90;99.90;;;;;;5035838;28;20082;-73
2022/05/06 00:13:57;;;;;;;43.75;24.08;;;11.80;99.90;;;;;;5053241;28;20108;-73
2022/05/06 00:16:24;;;;;;;73.07;27.27;;;11.70;99.90;;;;;;5053418;28;20036;-73
2022/05/06 00:18:50;;;;;;;70.38;29.83;;;11.60;99.90;;;;;;5044157;28;20025;-73
2022/05/06 00:21:17;;;;;;;61.90;27.73;;;11.50;99.90;;;;;;5032803;28;20030;-73
2022/05/06 00:23:44;;;;;;;57.13;29.63;;;11.60;99.90;;;;;;5033306;28;20112;-73
2022/05/06 00:26:10;;;;;;;45.60;25.60;;;11.70;99.90;;;;;;5033133;28;20474;-74
2022/05/06 00:28:37;;;;;;;52.65;27.10;;;11.60;99.90;;;;;;5033177;28;20063;-73
2022/05/06 00:31:04;;;;;;;63.10;29.15;;;11.60;99.90;;;;;;5033134;28;20482;-73
2022/05/06 00:33:31;;;;;;;51.13;29.40;;;11.70;99.90;;;;;;5032039;28;20128;-73
2022/05/06 00:35:58;;;;;;;54.60;30.42;;;11.70;99.90;;;;;;5031611;28;20033;-73
2022/05/06 00:38:24;;;;;;;55.10;29.92;;;11.80;99.90;;;;;;5033153;28;20025;-73
2022/05/06 00:40:51;;;;;;;57.25;31.45;;;11.80;99.90;;;;;;5039419;28;20107;-74
2022/05/06 00:43:18;;;;;;;62.05;33.63;;;12.00;99.90;;;;;;5072855;28;20029;-73
2022/05/06 00:45:47;;;;;;;61.78;32.90;;;12.10;99.90;;;;;;5054834;28;20039;-73
2022/05/06 00:48:14;;;;;;;55.47;31.58;;;11.90;99.90;;;;;;5038440;28;20033;-73
2022/05/06 00:50:40;;;;;;;59.63;31.85;;;11.70;99.90;;;;;;5072758;28;20158;-73
2022/05/06 00:53:07;;;;;;;65.25;31.65;;;11.70;99.90;;;;;;5038690;28;20020;-73
2022/05/06 00:55:36;;;;;;;60.25;33.05;;;11.60;99.90;;;;;;5072900;28;20044;-73
2022/05/06 00:58:06;;;;;;;64.18;34.90;;;11.70;99.90;;;;;;5054918;28;20095;-74
2022/05/06 01:00:32;;;;;;;63.92;32.60;;;11.70;99.90;;;;;;5038036;28;20028;-73
2022/05/06 01:02:59;;;;;;;65.63;36.15;;;11.60;99.90;;;;;;5067314;28;20071;-74
2022/05/06 01:05:26;;;;;;;67.47;35.70;;;11.60;99.90;;;;;;5034690;28;20025;-73
2022/05/06 01:07:52;;;;;;;65.40;36.50;;;11.70;99.90;;;;;;5034887;28;20033;-73
2022/05/06 01:10:20;;;;;;;70.75;38.17;;;11.80;99.90;;;;;;5034658;28;20091;-73
2022/05/06 01:12:48;;;;;;;65.93;38.13;;;11.70;99.90;;;;;;5034724;28;20446;-74
2022/05/06 01:15:23;;;;;;;71.03;40.20;;;11.60;99.90;;;;;;5034721;28;20017;-74
2022/05/06 01:18:13;;;;;;;72.72;41.55;;;11.70;99.90;;;;;;5052717;28;20051;-73
2022/05/06 01:20:51;;;;;;;71.32;39.22;;;11.70;99.90;;;;;;5035011;28;20116;-73
2022/05/06 01:23:19;;;;;;;73.65;40.60;;;11.80;99.90;;;;;;5052680;28;20366;-73
2022/05/06 01:25:46;;;;;;;72.47;39.88;;;11.80;99.90;;;;;;5034671;28;20037;-73
2022/05/06 01:28:13;;;;;;;72.43;41.13;;;12.00;99.90;;;;;;5052330;28;20041;-73
2022/05/06 01:30:45;;;;;;;66.03;39.83;;;12.10;99.90;;;;;;5034412;28;20036;-73
2022/05/06 01:33:14;;;;;;;57.65;36.22;;;12.10;99.90;;;;;;5054138;28;20401;-73
2022/05/06 01:35:50;;;;;;;54.72;33.97;;;11.80;99.90;;;;;;5056708;28;20021;-73
2022/05/06 01:38:25;;;;;;;59.15;34.53;;;11.90;99.90;;;;;;5038543;28;20461;-73
2022/05/06 01:40:58;;;;;;;62.80;37.97;;;11.90;99.90;;;;;;5038365;28;20039;-73
2022/05/06 01:43:37;;;;;;;74.85;35.83;;;12.10;99.90;;;;;;5038659;28;20020;-73
2022/05/06 01:46:08;;;;;;;61.25;37.22;;;12.00;99.90;;;;;;5037934;28;20082;-73
2022/05/06 01:48:36;;;;;;;79.05;39.95;;;12.20;99.90;;;;;;5038373;28;20032;-73
2022/05/06 01:51:03;;;;;;;66.00;36.97;;;11.90;99.90;;;;;;5038218;28;20158;-73
2022/05/06 01:53:33;;;;;;;64.28;39.72;;;11.80;99.90;;;;;;5054822;28;20585;-73
2022/05/06 01:56:01;;;;;;;60.92;37.22;;;11.80;99.90;;;;;;5054577;28;20040;-73
2022/05/06 01:58:33;;;;;;;67.88;39.10;;;11.90;99.90;;;;;;5038084;28;20429;-73
2022/05/06 02:01:04;;;;;;;79.25;38.28;;;11.90;99.90;;;;;;5038031;28;20036;-73
2022/05/06 02:06:18;;;;;;;71.57;40.97;;;11.80;99.90;;;;;;5037799;28;20033;-73
2022/05/06 02:08:48;;;;;;;76.18;40.80;;;11.60;99.90;;;;;;5022000;28;20127;-73
2022/05/06 02:11:22;;;;;;;80.10;42.47;;;11.60;99.90;;;;;;5037613;28;20474;-73
2022/05/06 02:13:48;;;;;;;78.68;44.25;;;11.70;99.90;;;;;;5055881;28;20039;-72
2022/05/06 02:16:35;;;;;;;80.10;42.08;;;11.80;99.90;;;;;;5037751;28;20021;-72
2022/05/06 02:19:20;;;;;;;74.55;44.80;;;11.90;99.90;;;;;;5037824;28;20039;-73
2022/05/06 02:22:05;;;;;;;82.32;46.20;;;11.90;99.90;;;;;;5054297;28;20086;-73
2022/05/06 02:24:42;;;;;;;81.28;46.47;;;12.20;99.90;;;;;;5055457;28;20028;-73
2022/05/06 02:27:23;;;;;;;78.45;47.47;;;12.50;99.90;;;;;;5055195;28;20039;-73
2022/05/06 02:35:26;;;;;;;86.60;48.08;;;12.40;99.90;;;;;;5037546;28;20040;-73
2022/05/06 02:37:52;;;;;;;87.88;47.33;;;12.80;99.90;;;;;;5037454;28;20473;-73
2022/05/06 02:40:20;;;;;;;84.38;48.35;;;12.30;99.90;;;;;;5037040;28;20059;-73
2022/05/06 02:42:46;;;;;;;83.45;45.78;;;12.00;99.90;;;;;;5020835;28;20087;-73
2022/05/06 02:45:14;;;;;;;77.45;44.45;;;11.90;99.90;;;;;;5053238;28;20052;-73
2022/05/06 02:47:40;;;;;;;77.93;43.63;;;12.10;99.90;;;;;;5037121;28;20516;-72
2022/05/06 02:50:06;;;;;;;86.07;48.60;;;12.10;99.90;;;;;;5037279;28;20029;-73
2022/05/06 02:52:34;;;;;;;88.13;50.70;;;12.30;99.90;;;;;;5036984;28;20048;-73
2022/05/06 02:55:00;;;;;;;78.50;45.38;;;12.10;99.90;;;;;;5054815;28;20025;-73
2022/05/06 02:57:26;;;;;;;80.80;45.10;;;11.80;99.90;;;;;;5037027;28;20021;-73
2022/05/06 02:59:52;;;;;;;87.68;48.33;;;11.90;99.90;;;;;;5037220;28;20032;-73
2022/05/06 03:02:23;;;;;;;88.68;48.10;;;12.30;99.90;;;;;;5036696;28;20082;-73
2022/05/06 03:04:49;;;;;;;89.18;48.88;;;12.50;99.90;;;;;;5036979;28;20047;-73
2022/05/06 03:07:18;;;;;;;95.72;50.30;;;12.30;99.90;;;;;;5036630;28;20041;-73
2022/05/06 03:09:48;;;;;;;90.60;50.30;;;12.40;99.90;;;;;;5036646;28;20024;-73
2022/05/06 03:12:19;;;;;;;89.88;50.65;;;12.10;99.90;;;;;;5036786;28;20565;-73
2022/05/06 03:14:56;;;;;;;94.15;52.58;;;11.90;99.90;;;;;;5016924;28;20025;-73
2022/05/06 03:17:33;;;;;;;85.72;48.92;;;11.80;99.90;;;;;;5033401;28;20025;-73
2022/05/06 03:19:59;;;;;;;90.30;47.78;;;12.00;99.90;;;;;;5034611;28;20059;-72
2022/05/06 03:22:26;;;;;;;79.60;44.17;;;11.90;99.90;;;;;;5016973;28;20029;-72
2022/05/06 03:24:52;;;;;;;81.15;45.95;;;11.70;99.90;;;;;;5016667;28;20030;-72
2022/05/06 03:30:04;;;;;;;91.30;42.70;;;11.50;99.90;;;;;;5034508;28;20021;-72
2022/05/06 03:32:33;;;;;;;81.07;43.85;;;11.50;99.90;;;;;;5016763;28;20025;-73
2022/05/06 03:34:59;;;;;;;85.32;45.88;;;11.70;99.90;;;;;;5034146;28;20033;-73
2022/05/06 03:37:26;;;;;;;91.57;46.67;;;11.60;99.90;;;;;;5032532;28;20040;-72
2022/05/06 03:39:54;;;;;;;92.28;47.10;;;11.50;99.90;;;;;;5016423;28;20029;-72
2022/05/06 03:42:20;;;;;;;99.47;48.90;;;11.70;99.90;;;;;;5034235;28;20029;-73
2022/05/06 03:44:46;;;;;;;92.63;48.20;;;11.90;99.90;;;;;;5032693;28;20022;-73
2022/05/06 03:47:13;;;;;;;91.78;48.40;;;12.00;99.90;;;;;;5026153;28;20413;-72
2022/05/06 03:49:39;;;;;;;115.93;51.85;;;12.10;99.90;;;;;;5036084;28;20021;-73
2022/05/06 03:52:06;;;;;;;100.45;52.60;;;12.30;99.90;;;;;;5035707;28;20124;-73
2022/05/06 03:54:33;;;;;;;119.85;54.15;;;12.10;99.90;;;;;;5035778;28;20053;-73
2022/05/06 03:56:59;;;;;;;112.63;54.67;;;12.10;99.90;;;;;;5035179;28;20043;-73
2022/05/06 03:59:25;;;;;;;107.95;53.88;;;12.20;99.90;;;;;;5035996;28;20021;-74
2022/05/06 04:02:01;;;;;;;107.22;54.65;;;11.90;99.90;;;;;;5035909;28;20029;-73
2022/05/06 04:04:30;;;;;;;109.25;53.92;;;11.90;99.90;;;;;;5035317;28;20461;-73
2022/05/06 04:07:00;;;;;;;102.53;54.20;;;11.80;99.90;;;;;;5035218;28;20053;-73
2022/05/06 04:09:27;;;;;;;109.00;52.10;;;11.70;99.90;;;;;;5035700;28;20047;-73
2022/05/06 04:11:56;;;;;;;110.72;53.85;;;11.60;99.90;;;;;;5035745;28;20089;-72
2022/05/06 04:14:22;;;;;;;104.20;53.83;;;11.60;99.90;;;;;;5035602;28;20033;-73
2022/05/06 04:16:50;;;;;;;111.10;53.78;;;11.60;99.90;;;;;;5035541;28;20017;-72
2022/05/06 04:19:30;;;;;;;107.43;53.47;;;11.80;99.90;;;;;;5053409;28;20048;-73
2022/05/06 04:24:52;;;;;;;101.93;51.47;;;11.80;99.90;;;;;;5053128;28;20090;-73
2022/05/06 04:27:20;;;;;;;97.35;48.60;;;11.70;99.90;;;;;;5035293;28;20489;-73
2022/05/06 04:29:48;;;;;;;118.00;48.83;;;12.00;99.90;;;;;;5035212;28;20025;-72
2022/05/06 04:32:14;;;;;;;96.82;48.75;;;11.80;99.90;;;;;;5035388;28;20394;-73
2022/05/06 04:34:40;;;;;;;97.68;45.70;;;11.60;99.90;;;;;;5035230;28;20017;-73
2022/05/06 04:37:07;;;;;;;89.85;46.67;;;11.40;99.90;;;;;;5034916;28;20128;-72
2022/05/06 04:39:36;;;;;;;106.65;46.28;;;11.60;99.90;;;;;;5019143;28;20529;-73
2022/05/06 04:42:02;;;;;;;102.18;50.25;;;11.60;99.90;;;;;;5052983;28;20389;-73
2022/05/06 04:44:33;;;;;;;103.53;51.40;;;11.80;99.90;;;;;;5035063;28;20028;-73
2022/05/06 04:46:59;;;;;;;101.85;50.42;;;11.80;99.90;;;;;;5034933;28;20037;-72
2022/05/06 04:49:27;;;;;;;105.97;50.38;;;12.20;99.90;;;;;;5034758;28;20485;-72
2022/05/06 04:51:53;;;;;;;91.57;47.95;;;12.10;99.90;;;;;;5051420;28;20055;-73
2022/05/06 04:54:18;;;;;;;92.53;49.63;;;12.20;99.90;;;;;;5034979;28;20028;-72
2022/05/06 04:56:46;;;;;;;85.18;44.47;;;12.10;99.90;;;;;;5034917;28;20025;-73
2022/05/06 04:59:22;;;;;;;77.18;42.35;;;12.20;99.90;;;;;;5051592;28;20025;-72
2022/05/06 05:01:50;;;;;;;86.00;43.50;;;12.20;99.90;;;;;;5051347;28;20029;-73
2022/05/06 05:04:16;;;;;;;80.20;42.63;;;12.50;99.90;;;;;;5052208;28;20033;-73
2022/05/06 05:06:43;;;;;;;82.22;43.58;;;12.50;99.90;;;;;;5034588;28;20041;-73
2022/05/06 05:09:13;;;;;;;81.28;42.33;;;12.80;99.90;;;;;;5034830;28;20051;-73
2022/05/06 05:11:41;;;;;;;84.53;45.60;;;12.80;99.90;;;;;;5034699;28;20036;-73
2022/05/06 05:14:13;;;;;;;119.22;50.10;;;12.50;99.90;;;;;;5040305;28;20021;-73
2022/05/06 05:16:40;;;;;;;88.13;45.92;;;12.80;99.90;;;;;;5072656;28;20039;-73
2022/05/06 05:19:07;;;;;;;120.43;48.72;;;12.30;99.90;;;;;;5054407;28;20396;-73
2022/05/06 05:21:35;;;;;;;105.07;45.17;;;12.50;99.90;;;;;;5054631;28;20021;-73
2022/05/06 05:24:03;;;;;;;92.40;45.33;;;12.40;99.90;;;;;;5054776;28;20124;-73
2022/05/06 05:26:29;;;;;;;98.03;44.38;;;11.90;99.90;;;;;;5054332;28;20060;-73
2022/05/06 05:28:55;;;;;;;131.13;46.63;;;11.90;99.90;;;;;;5054435;28;20028;-73
2022/05/06 05:31:22;;;;;;;130.02;42.83;;;11.80;99.90;;;;;;5054500;28;20090;-73
2022/05/06 05:33:49;;;;;;;120.43;41.92;;;12.00;99.90;;;;;;5037548;28;20029;-73
2022/05/06 05:36:15;;;;;;;78.20;41.67;;;11.90;99.90;;;;;;5054190;28;20062;-73
2022/05/06 05:38:41;;;;;;;82.72;40.75;;;11.90;99.90;;;;;;5037952;28;20025;-73
2022/05/06 05:41:07;;;;;;;116.00;43.70;;;11.50;99.90;;;;;;5054273;28;20484;-73
2022/05/06 05:49:07;;;;;;;72.68;36.83;;;11.70;99.90;;;;;;5034190;28;20021;-73
2022/05/06 05:51:33;;;;;;;120.10;37.58;;;11.40;99.90;;;;;;5050954;28;20025;-73
2022/05/06 05:54:00;;;;;;;83.75;37.88;;;11.40;99.90;;;;;;5034524;28;20017;-72
2022/05/06 05:56:30;;;;;;;77.28;40.53;;;11.60;99.90;;;;;;5034234;28;20389;-73
2022/05/06 05:58:57;;;;;;;83.03;37.85;;;11.90;99.90;;;;;;5018082;28;20112;-73
2022/05/06 06:01:23;;;;;;;104.35;37.25;;;12.10;99.90;;;;;;5034280;28;20516;-73
2022/05/06 06:03:51;;;;;;;62.40;35.88;;;12.30;99.90;;;;;;5050333;28;20024;-73
2022/05/06 06:06:17;;;;;;;76.72;36.05;;;12.10;99.90;;;;;;5017584;28;20029;-73
2022/05/06 06:08:47;;;;;;;149.45;36.50;;;11.90;99.90;;;;;;5051028;28;20033;-73
2022/05/06 06:11:13;;;;;;;120.10;36.42;;;11.90;99.90;;;;;;5033960;28;20039;-73
2022/05/06 06:13:43;;;;;;;73.47;39.47;;;12.10;99.90;;;;;;5034033;28;20079;-72
2022/05/06 06:16:14;;;;;;;92.00;36.78;;;12.50;99.90;;;;;;5034107;28;20098;-73
2022/05/06 06:18:40;;;;;;;73.53;38.55;;;12.00;99.90;;;;;;5034455;28;20419;-73
2022/05/06 06:21:06;;;;;;;72.65;38.17;;;12.10;99.90;;;;;;5054294;28;20412;-73
2022/05/06 06:23:33;;;;;;;79.38;41.58;;;11.80;99.90;;;;;;5054091;28;20492;-73
2022/05/06 06:26:00;;;;;;;74.97;40.72;;;12.10;99.90;;;;;;5037557;28;20025;-73
2022/05/06 06:28:27;;;;;;;62.35;36.15;;;12.00;99.90;;;;;;5054145;28;20128;-73
2022/05/06 06:30:53;;;;;;;68.72;36.55;;;12.00;99.90;;;;;;5037835;28;20064;-73
2022/05/06 06:33:18;;;;;;;59.70;35.22;;;12.20;99.90;;;;;;5037333;28;20079;-73
2022/05/06 06:35:44;;;;;;;65.10;34.53;;;11.90;99.90;;;;;;5054051;28;20412;-73
2022/05/06 06:38:11;;;;;;;58.33;33.45;;;11.70;99.90;;;;;;5037411;28;20036;-72
2022/05/06 06:40:41;;;;;;;54.90;29.95;;;11.70;99.90;;;;;;5037439;28;20028;-72
2022/05/06 06:43:07;;;;;;;61.30;29.27;;;11.40;99.90;;;;;;5055029;28;20024;-73
2022/05/06 06:45:44;;;;;;;59.88;30.60;;;11.80;99.90;;;;;;5054893;28;20061;-72
2022/05/06 06:48:32;;;;;;;56.20;31.35;;;11.70;99.90;;;;;;5004038;28;20462;-72
2022/05/06 06:51:10;;;;;;;57.33;32.30;;;11.80;99.90;;;;;;5034996;28;20045;-73
2022/05/06 06:53:53;;;;;;;58.58;32.30;;;11.90;99.90;;;;;;5034881;28;20418;-73
2022/05/06 06:56:20;;;;;;;57.60;31.40;;;12.20;99.90;;;;;;5037533;28;20033;-73
2022/05/06 06:58:46;;;;;;;62.40;32.47;;;12.10;99.90;;;;;;5045813;28;20025;-72
2022/05/06 07:01:11;;;;;;;55.22;30.65;;;12.00;99.90;;;;;;5053553;28;20071;-72
2022/05/06 07:03:37;;;;;;;51.22;29.88;;;11.60;99.90;;;;;;5045733;28;20022;-72
2022/05/06 07:14:16;;;;;;;57.00;29.67;;;12.10;99.90;;;;;;5044466;28;20504;-73
2022/05/06 07:16:42;;;;;;;46.38;27.50;;;11.80;99.90;;;;;;5053081;28;20037;-72
2022/05/06 07:19:08;;;;;;;45.47;27.20;;;11.90;99.90;;;;;;5053504;28;20056;-72
2022/05/06 07:21:35;;;;;;;43.78;25.70;;;12.00;99.90;;;;;;5019408;28;20031;-73
2022/05/06 07:24:00;;;;;;;40.97;25.63;;;12.30;99.90;;;;;;5046445;28;20445;-72
2022/05/06 07:26:27;;;;;;;48.50;25.63;;;12.30;99.90;;;;;;5047549;28;20500;-73
2022/05/06 07:28:53;;;;;;;39.85;23.00;;;12.20;99.90;;;;;;5052290;28;20017;-73
2022/05/06 07:31:18;;;;;;;36.42;22.45;;;12.50;99.90;;;;;;5040071;28;20355;-73
2022/05/06 07:33:44;;;;;;;44.95;24.60;;;12.10;99.90;;;;;;5046026;28;20021;-73
2022/05/06 07:36:10;;;;;;;39.75;23.67;;;12.70;99.90;;;;;;5034797;28;20127;-72
2022/05/06 07:38:36;;;;;;;36.53;23.95;;;12.80;99.90;;;;;;5042520;28;20040;-73
2022/05/06 07:41:03;;;;;;;36.13;23.45;;;13.10;99.90;;;;;;5028743;28;20056;-73
2022/05/06 07:43:29;;;;;;;38.60;24.77;;;13.40;99.90;;;;;;5018446;28;20088;-73
2022/05/06 07:45:55;;;;;;;39.20;24.50;;;13.80;99.90;;;;;;5051884;28;20483;-73
2022/05/06 07:48:21;;;;;;;38.60;22.95;;;13.80;99.90;;;;;;5044532;28;20037;-73
2022/05/06 07:50:48;;;;;;;34.67;22.35;;;14.30;99.90;;;;;;5044602;28;20028;-74
2022/05/06 07:53:15;;;;;;;33.65;23.42;;;14.60;99.90;;;;;;5019706;28;20080;-73
2022/05/06 07:55:42;;;;;;;36.30;22.27;;;13.90;99.90;;;;;;5049378;28;20048;-73
2022/05/06 07:58:08;;;;;;;35.15;21.90;;;13.50;99.90;;;;;;5033907;28;20116;-74
2022/05/06 08:00:34;;;;;;;38.13;22.42;;;14.00;99.90;;;;;;5041822;28;20481;-73
2022/05/06 08:05:47;;;;;;;38.65;24.23;;;14.50;99.90;;;;;;5036268;28;20510;-73
2022/05/06 08:08:14;;;;;;;36.80;24.08;;;14.60;99.90;;;;;;5045286;28;20037;-73
2022/05/06 08:10:40;;;;;;;39.90;22.42;;;14.70;99.90;;;;;;5016723;28;20041;-73
2022/05/06 08:13:06;;;;;;;36.10;22.35;;;14.70;99.90;;;;;;5052586;28;20021;-73
2022/05/06 08:15:32;;;;;;;36.72;23.67;;;14.40;99.90;;;;;;5048680;28;20469;-73
2022/05/06 08:17:58;;;;;;;35.55;21.20;;;14.60;99.90;;;;;;5052597;28;20040;-73
2022/05/06 08:20:24;;;;;;;38.80;22.55;;;14.40;99.90;;;;;;5048790;28;20030;-73
2022/05/06 08:22:50;;;;;;;34.33;22.58;;;14.30;99.90;;;;;;5052283;28;20021;-73
2022/05/06 08:25:15;;;;;;;34.15;22.15;;;14.40;99.90;;;;;;5044669;28;20033;-73
2022/05/06 08:27:43;;;;;;;31.50;19.40;;;14.90;99.90;;;;;;5043600;28;20044;-73
2022/05/06 08:30:13;;;;;;;38.95;21.98;;;15.30;99.90;;;;;;5037402;28;20022;-73
2022/05/06 08:32:40;;;;;;;32.25;22.23;;;15.60;99.90;;;;;;5049420;28;20499;-73
2022/05/06 08:35:07;;;;;;;31.00;19.88;;;16.00;99.90;;;;;;5022053;28;20021;-73
2022/05/06 08:37:47;;;;;;;31.95;20.58;;;15.90;99.90;;;;;;5051920;28;20052;-73
2022/05/06 08:40:31;;;;;;;31.67;20.33;;;15.50;99.90;;;;;;5052586;28;20397;-73
2022/05/06 08:42:58;;;;;;;29.38;19.48;;;15.30;99.90;;;;;;5052006;28;20040;-73
2022/05/06 08:50:57;;;;;;;34.55;20.73;;;15.80;99.90;;;;;;5034976;28;20028;-75
2022/05/06 08:53:27;;;;;;;34.22;21.25;;;16.20;99.90;;;;;;5052766;28;20099;-76
2022/05/06 08:55:57;;;;;;;31.52;19.65;;;16.40;99.90;;;;;;5052978;28;20060;-76
2022/05/06 08:58:24;;;;;;;29.05;19.75;;;16.80;99.90;;;;;;5052837;28;20039;-75
2022/05/06 09:00:59;;;;;;;31.88;19.45;;;16.90;99.90;;;;;;5052521;28;20025;-75
2022/05/06 09:03:25;;;;;;;30.13;18.52;;;16.40;99.90;;;;;;5052802;28;20465;-75
2022/05/06 09:05:52;;;;;;;27.27;17.48;;;16.30;99.90;;;;;;5052422;28;20071;-76
2022/05/06 09:08:19;;;;;;;28.95;18.15;;;16.30;99.90;;;;;;5052732;28;20037;-75
2022/05/06 09:11:07;;;;;;;25.45;16.55;;;15.80;99.90;;;;;;5052231;28;20060;-76
2022/05/06 09:13:37;;;;;;;24.77;16.17;;;16.20;99.90;;;;;;5052650;28;20047;-75
2022/05/06 09:19:28;;;;;;;25.80;16.88;;;16.10;99.90;;;;;;5052628;28;20083;-75
2022/05/06 09:22:26;;;;;;;30.13;16.27;;;16.20;99.90;;;;;;5049599;28;20080;-75
2022/05/06 09:24:53;;;;;;;24.00;14.95;;;16.90;99.90;;;;;;5034853;28;20135;-75
2022/05/06 09:27:21;;;;;;;24.92;15.55;;;17.40;99.90;;;;;;5051979;28;20045;-76
2022/05/06 09:29:48;;;;;;;23.33;16.10;;;17.70;99.90;;;;;;5052518;28;20377;-76
2022/05/06 09:32:20;;;;;;;25.45;15.68;;;17.90;99.90;;;;;;5052532;28;20037;-75
2022/05/06 09:34:48;;;;;;;27.77;15.27;;;17.80;99.90;;;;;;5052483;28;20037;-75
2022/05/06 09:37:43;;;;;;;20.92;14.55;;;18.10;99.90;;;;;;5034753;28;20028;-75
2022/05/06 09:40:17;;;;;;;20.05;14.75;;;18.20;99.90;;;;;;5052269;28;20033;-75
2022/05/06 09:42:46;;;;;;;21.27;13.45;;;18.60;99.90;;;;;;5034470;28;20479;-75
2022/05/06 09:45:28;;;;;;;17.65;11.65;;;18.30;99.90;;;;;;5052368;28;20037;-76
2022/05/06 09:47:58;;;;;;;19.35;12.30;;;18.60;99.90;;;;;;5062402;28;20112;-75
2022/05/06 09:50:38;;;;;;;17.65;12.52;;;18.30;99.90;;;;;;5072272;28;20033;-75
2022/05/06 09:53:08;;;;;;;17.95;12.60;;;18.40;99.90;;;;;;5072244;28;20394;-75
2022/05/06 09:55:36;;;;;;;17.95;12.82;;;18.50;99.90;;;;;;5057762;28;20430;-76
2022/05/06 09:58:04;;;;;;;18.90;12.93;;;18.60;99.90;;;;;;5076117;28;20101;-75
2022/05/06 10:00:32;;;;;;;17.77;12.77;;;18.80;99.90;;;;;;5076017;28;20457;-76
2022/05/06 10:03:00;;;;;;;22.08;12.63;;;19.00;99.90;;;;;;5070578;28;20021;-76
2022/05/06 10:05:28;;;;;;;18.50;12.00;;;18.50;99.90;;;;;;5037876;28;20029;-75
2022/05/06 10:08:20;;;;;;;20.35;9.93;;;18.60;99.90;;;;;;5055954;28;20053;-76
2022/05/06 10:10:55;;;;;;;14.02;9.60;;;18.80;99.90;;;;;;5042344;28;20045;-76
2022/05/06 10:13:22;;;;;;;13.98;10.43;;;18.80;99.90;;;;;;5055654;28;20116;-76
2022/05/06 10:15:53;;;;;;;17.55;11.27;;;18.60;99.90;;;;;;5038185;28;20035;-75
2022/05/06 10:18:36;;;;;;;19.43;9.80;;;18.80;99.90;;;;;;5055549;28;20037;-75
2022/05/06 10:21:04;;;;;;;16.58;10.57;;;19.00;99.30;;;;;;5055827;28;20029;-75
2022/05/06 10:23:55;;;;;;;16.85;11.10;;;19.10;99.90;;;;;;5055257;28;20057;-76
2022/05/06 10:26:42;;;;;;;18.50;11.45;;;19.10;99.80;;;;;;5055560;28;20032;-76
2022/05/06 10:32:28;;;;;;;18.83;11.85;;;20.50;98.80;;;;;;5051065;28;20065;-76
2022/05/06 10:35:04;;;;;;;;;;;20.60;97.40;;;;;;5055902;28;20040;-76
2022/05/06 10:37:37;;;;;;;16.65;10.50;;;20.50;97.60;;;;;;5055046;28;19920;-76
2022/05/06 10:40:23;;;;;;;15.85;10.55;;;20.60;96.80;;;;;;5055342;28;20496;-76
2022/05/06 10:42:49;;;;;;;15.95;10.18;;;20.60;97.20;;;;;;5054969;28;20075;-76
2022/05/06 10:45:29;;;;;;;14.88;10.52;;;21.00;96.10;;;;;;5055242;28;20029;-74
2022/05/06 10:47:55;;;;;;;12.10;9.43;;;21.00;96.20;;;;;;5054593;28;20048;-74
2022/05/06 10:50:24;;;;;;;16.98;10.55;;;21.00;95.70;;;;;;5054969;28;20021;-74
2022/05/06 10:52:50;;;;;;;14.68;9.52;;;21.10;95.60;;;;;;5054754;28;20037;-75
2022/05/06 10:55:18;;;;;;;13.20;9.50;;;21.10;95.50;;;;;;5055406;28;20094;-76
2022/05/06 10:57:53;;;;;;;14.13;9.98;;;21.40;96.00;;;;;;5054978;28;20054;-75
2022/05/06 11:00:21;;;;;;;20.05;10.38;;;21.70;94.40;;;;;;5036980;28;20473;-76
2022/05/06 11:02:48;;;;;;;18.67;11.15;;;20.60;95.10;;;;;;5037152;28;20041;-77
2022/05/06 11:05:17;;;;;;;17.55;10.82;;;20.80;95.60;;;;;;5054147;28;20075;-77
2022/05/06 11:07:45;;;;;;;19.42;13.52;;;21.10;96.10;;;;;;5054147;28;20441;-78
2022/05/06 11:10:16;;;;;;;24.15;14.10;;;21.10;96.20;;;;;;5036881;28;20127;-78
2022/05/06 11:12:45;;;;;;;23.38;12.50;;;21.60;95.20;;;;;;5053529;28;20033;-77
2022/05/06 11:15:14;;;;;;;19.08;13.57;;;21.80;94.90;;;;;;5054989;28;20431;-78
2022/05/06 11:17:42;;;;;;;21.55;12.95;;;21.40;94.60;;;;;;5055096;28;20420;-77
2022/05/06 11:20:14;;;;;;;19.05;13.60;;;22.00;94.40;;;;;;5054765;28;20081;-77
2022/05/06 11:22:56;;;;;;;30.08;14.55;;;22.60;94.10;;;;;;5054467;28;20029;-78
2022/05/06 11:25:24;;;;;;;25.35;14.77;;;22.20;94.60;;;;;;5054523;28;20054;-78
2022/05/06 11:27:51;;;;;;;20.67;14.10;;;21.90;93.90;;;;;;5054317;28;20041;-78
2022/05/06 11:30:18;;;;;;;22.40;14.93;;;22.20;94.10;;;;;;5054137;28;20060;-77
2022/05/06 11:32:53;;;;;;;25.48;15.27;;;22.50;93.70;;;;;;5054435;28;20037;-79
2022/05/06 11:35:40;;;;;;;30.83;15.43;;;22.80;93.30;;;;;;5054187;28;20181;-77
2022/05/06 11:38:06;;;;;;;21.75;14.57;;;22.60;93.50;;;;;;5054468;28;20029;-77
2022/05/06 11:40:34;;;;;;;24.52;14.73;;;22.30;94.00;;;;;;5019989;28;20082;-77
2022/05/06 11:43:06;;;;;;;26.70;17.30;;;22.70;94.10;;;;;;5054815;28;20118;-77
2022/05/06 11:48:22;;;;;;;20.20;14.38;;;23.30;93.40;;;;;;5053964;28;20048;-78
2022/05/06 11:51:06;;;;;;;23.42;15.20;;;23.80;93.00;;;;;;5053723;28;20175;-75
2022/05/06 11:53:32;;;;;;;25.02;16.17;;;23.60;91.70;;;;;;5054011;28;20493;-78
2022/05/06 11:55:58;;;;;;;21.38;14.27;;;24.00;92.30;;;;;;5054356;28;20039;-78
2022/05/06 11:58:25;;;;;;;28.85;15.02;;;24.00;91.50;;;;;;5055619;28;20029;-76
2022/05/06 12:00:53;;;;;;;22.77;15.43;;;23.70;92.50;;;;;;5053742;28;20072;-77
2022/05/06 12:03:21;;;;;;;23.55;14.70;;;23.60;92.10;;;;;;5036011;28;20016;-75
2022/05/06 12:06:00;;;;;;;22.88;15.80;;;23.60;91.80;;;;;;5052975;28;20048;-76
2022/05/06 12:08:28;;;;;;;29.58;15.75;;;23.90;92.00;;;;;;5053595;28;20078;-76
2022/05/06 12:11:02;;;;;;;18.52;13.23;;;24.30;91.10;;;;;;5053441;28;20025;-77
2022/05/06 12:13:38;;;;;;;21.10;13.90;;;23.90;91.20;;;;;;5035866;28;20029;-76
2022/05/06 12:16:12;;;;;;;22.45;14.05;;;23.10;91.50;;;;;;5052796;28;20029;-78
2022/05/06 12:18:52;;;;;;;22.73;15.07;;;22.90;92.10;;;;;;5053592;28;20025;-78
2022/05/06 12:21:20;;;;;;;21.98;14.50;;;23.00;92.20;;;;;;5052940;28;20021;-78
2022/05/06 12:23:52;;;;;;;21.65;14.07;;;24.00;91.60;;;;;;5053616;28;20037;-77
2022/05/06 12:26:32;;;;;;;21.45;15.10;;;24.50;90.40;;;;;;5051841;28;20033;-77
2022/05/06 12:29:00;;;;;;;23.02;16.00;;;24.70;90.60;;;;;;5035796;28;20095;-77
2022/05/06 12:31:29;;;;;;;23.95;15.18;;;25.00;89.20;;;;;;5051516;28;20079;-78
2022/05/06 12:34:08;;;;;;;23.88;15.15;;;23.70;90.30;;;;;;5052913;28;20037;-78
2022/05/06 12:36:36;;;;;;;24.77;14.20;;;23.50;91.10;;;;;;5052882;28;20083;-78
2022/05/06 12:39:22;;;;;;;17.13;12.90;;;23.90;91.10;;;;;;5053075;28;20485;-77
2022/05/06 12:41:49;;;;;;;18.85;12.38;;;24.60;89.70;;;;;;5052646;28;20051;-77
2022/05/06 12:44:19;;;;;;;20.33;12.77;;;25.00;88.10;;;;;;5051871;28;20485;-76
2022/05/06 12:46:46;;;;;;;18.05;13.30;;;24.70;89.30;;;;;;5052518;28;20049;-77
2022/05/06 12:51:56;;;;;;;22.75;13.40;;;25.50;89.30;;;;;;5052892;28;20029;-77
2022/05/06 12:54:22;;;;;;;20.50;13.32;;;25.30;87.20;;;;;;5053051;28;20204;-77
2022/05/06 12:56:48;;;;;;;21.20;13.15;;;25.40;87.50;;;;;;5052775;28;20393;-77
2022/05/06 12:59:14;;;;;;;21.08;14.30;;;25.20;88.70;;;;;;5035154;28;20048;-76
2022/05/06 13:01:40;;;;;;;18.95;13.02;;;25.20;88.10;;;;;;5052370;28;20021;-76
2022/05/06 13:04:06;;;;;;;19.60;14.18;;;26.50;87.20;;;;;;5052249;28;20074;-77
2022/05/06 13:06:32;;;;;;;22.55;13.15;;;27.20;85.50;;;;;;5052230;28;20028;-78
2022/05/06 13:08:59;;;;;;;22.27;13.25;;;27.30;84.10;;;;;;5052402;28;20169;-78
2022/05/06 13:11:25;;;;;;;20.10;12.07;;;27.10;83.70;;;;;;5052679;28;20119;-77
2022/05/06 13:13:52;;;;;;;19.00;11.27;;;27.00;82.80;;;;;;5052699;28;20076;-78
2022/05/06 13:16:18;;;;;;;24.42;12.65;;;26.70;84.50;;;;;;5052960;28;20017;-77
2022/05/06 13:18:44;;;;;;;16.20;11.80;;;27.90;83.00;;;;;;5052306;28;20029;-78
2022/05/06 13:21:10;;;;;;;19.15;11.90;;;26.80;82.40;;;;;;5034547;28;20031;-77
2022/05/06 13:23:37;;;;;;;20.20;11.10;;;27.20;80.60;;;;;;5052541;28;20025;-78
2022/05/06 13:26:03;;;;;;;15.85;11.18;;;25.90;82.70;;;;;;5034050;28;20041;-78